Time;durP1;ratioP1;P1;durP2;ratioP2;P2;SDS_P1;SDS_P2;PMS_P1;PMS_P2;Temp;Humidity;BMP_temperature;BMP_pressure;BME280_temperature;BME280_humidity;BME280_pressure;Samples;Min_cycle;Max_cycle;Signal;HPM_P1;HPM_P2
2022/08/16 00:00:25;;;;;;;;;;;21.20;99.90;;;;;;5049609;28;20359;-78
2022/08/16 00:02:51;;;;;;;;;;;21.20;99.90;;;;;;5047307;28;19932;-78
2022/08/16 00:05:18;;;;;;;;;;;21.30;99.90;;;;;;5049401;28;19987;-78
2022/08/16 00:07:43;;;;;;;;;;;21.20;99.90;;;;;;5048456;28;19924;-78
2022/08/16 00:10:10;;;;;;;;;;;21.20;99.90;;;;;;5048730;28;20405;-79
2022/08/16 00:12:40;;;;;;;;;;;21.20;99.90;;;;;;5048108;28;19929;-79
2022/08/16 00:15:08;;;;;;;;;;;21.20;99.90;;;;;;5048050;28;20015;-78
2022/08/16 00:17:34;;;;;;;;;;;21.20;99.90;;;;;;5048700;28;19970;-78
2022/08/16 00:19:59;;;;;;;;;;;21.20;99.90;;;;;;5047897;28;19956;-78
2022/08/16 00:22:25;;;;;;;;;;;21.20;99.90;;;;;;5047844;28;19932;-79
2022/08/16 00:24:52;;;;;;;;;;;21.20;99.90;;;;;;5048317;28;19931;-78
2022/08/16 00:27:17;;;;;;;;;;;21.20;99.90;;;;;;5048818;28;19982;-78
2022/08/16 00:29:43;;;;;;;;;;;21.20;99.90;;;;;;5047315;28;20101;-78
2022/08/16 00:32:08;;;;;;;;;;;21.20;99.90;;;;;;5047452;28;19925;-78
2022/08/16 00:34:35;;;;;;;;;;;21.20;99.90;;;;;;5047947;28;19929;-78
2022/08/16 00:37:00;;;;;;;;;;;21.20;99.90;;;;;;5048433;28;19975;-79
2022/08/16 00:39:25;;;;;;;;;;;21.20;99.90;;;;;;5048775;28;19976;-78
2022/08/16 00:41:51;;;;;;;;;;;21.20;99.90;;;;;;5048315;28;19924;-79
2022/08/16 00:44:19;;;;;;;;;;;21.20;99.90;;;;;;5047209;28;20298;-78
2022/08/16 00:46:52;;;;;;;;;;;21.20;99.90;;;;;;5048362;28;19971;-78
2022/08/16 00:49:18;;;;;;;;;;;21.20;99.90;;;;;;5047005;28;20354;-78
2022/08/16 00:51:44;;;;;;;;;;;21.20;99.90;;;;;;5048035;28;20224;-78
2022/08/16 00:54:10;;;;;;;;;;;21.20;99.90;;;;;;5048418;28;20375;-78
2022/08/16 00:56:37;;;;;;;;;;;21.20;99.90;;;;;;5047759;28;19967;-79
2022/08/16 00:59:03;;;;;;;;;;;21.20;99.90;;;;;;5047370;28;20322;-78
2022/08/16 01:01:31;;;;;;;;;;;21.20;99.90;;;;;;5047757;28;19924;-79
2022/08/16 01:03:57;;;;;;;;;;;21.10;99.90;;;;;;5047937;28;19972;-78
2022/08/16 01:06:23;;;;;;;;;;;21.10;99.90;;;;;;5046810;28;20006;-78
2022/08/16 01:08:50;;;;;;;;;;;21.10;99.90;;;;;;5047186;28;19972;-78
2022/08/16 01:11:15;;;;;;;;;;;21.10;99.90;;;;;;5047963;28;19939;-78
2022/08/16 01:13:41;;;;;;;;;;;21.10;99.90;;;;;;5063117;22;19929;-79
2022/08/16 01:16:14;;;;;;;;;;;21.10;99.90;;;;;;5048124;28;19925;-78
2022/08/16 01:18:45;;;;;;;;;;;21.10;99.90;;;;;;5046715;28;19979;-79
2022/08/16 01:21:17;;;;;;;;;;;21.00;99.90;;;;;;5047073;28;20382;-79
2022/08/16 01:24:01;;;;;;;;;;;21.00;99.90;;;;;;5045784;28;19925;-79
2022/08/16 01:26:29;;;;;;;;;;;21.10;99.90;;;;;;5048315;28;19948;-79
2022/08/16 01:28:56;;;;;;;;;;;21.00;99.90;;;;;;5045804;28;20469;-78
2022/08/16 01:31:21;;;;;;;;;;;21.10;99.90;;;;;;5048218;28;19925;-79
2022/08/16 01:33:48;;;;;;;;;;;21.00;99.90;;;;;;5047010;28;20301;-79
2022/08/16 01:36:14;;;;;;;;;;;21.00;99.90;;;;;;5046504;28;19932;-79
2022/08/16 01:38:44;;;;;;;;;;;21.00;99.90;;;;;;5047309;28;19994;-79
2022/08/16 01:41:11;;;;;;;;;;;21.00;99.90;;;;;;5047370;28;19931;-78
2022/08/16 01:43:39;;;;;;;;;;;21.00;99.90;;;;;;5046236;28;19929;-79
2022/08/16 01:46:07;;;;;;;;;;;21.00;99.90;;;;;;5046325;28;19925;-78
2022/08/16 01:48:32;;;;;;;;;;;21.00;99.90;;;;;;5047217;28;19970;-78
2022/08/16 01:50:59;;;;;;;;;;;21.00;99.90;;;;;;5047461;28;19932;-79
2022/08/16 01:53:25;;;;;;;;;;;20.90;99.90;;;;;;5046146;28;19916;-78
2022/08/16 01:55:51;;;;;;;;;;;20.90;99.90;;;;;;5047023;28;19972;-78
2022/08/16 01:58:17;;;;;;;;;;;20.90;99.90;;;;;;5045173;28;19960;-78
2022/08/16 02:00:43;;;;;;;;;;;20.90;99.90;;;;;;5046999;28;19917;-79
2022/08/16 02:03:09;;;;;;;;;;;20.80;99.90;;;;;;5045973;28;20288;-78
2022/08/16 02:05:35;;;;;;;;;;;20.80;99.90;;;;;;5047045;28;19927;-79
2022/08/16 02:08:00;;;;;;;;;;;20.80;99.90;;;;;;5047068;28;19979;-78
2022/08/16 02:10:26;;;;;;;;;;;20.80;99.90;;;;;;5045820;28;19925;-79
2022/08/16 02:12:52;;;;;;;;;;;20.80;99.90;;;;;;5045102;28;20367;-79
2022/08/16 02:15:23;;;;;;;;;;;20.70;99.90;;;;;;5045621;28;19925;-79
2022/08/16 02:17:48;;;;;;;;;;;20.70;99.90;;;;;;5045804;28;20445;-79
2022/08/16 02:20:15;;;;;;;;;;;20.70;99.90;;;;;;5045911;28;19960;-79
2022/08/16 02:22:40;;;;;;;;;;;20.60;99.90;;;;;;5046912;28;19929;-78
2022/08/16 02:25:08;;;;;;;;;;;20.60;99.90;;;;;;5045393;28;20433;-79
2022/08/16 02:27:33;;;;;;;;;;;20.60;99.90;;;;;;5045928;28;20394;-79
2022/08/16 02:29:59;;;;;;;;;;;20.50;99.90;;;;;;5046947;28;19932;-79
2022/08/16 02:32:24;;;;;;;;;;;20.50;99.90;;;;;;5047823;28;19925;-79
2022/08/16 02:34:50;;;;;;;;;;;20.50;99.90;;;;;;5039929;28;19979;-79
2022/08/16 02:37:16;;;;;;;;;;;20.50;99.90;;;;;;5063412;28;20722;-78
2022/08/16 02:39:41;;;;;;;;;;;20.50;99.90;;;;;;5065850;28;20298;-78
2022/08/16 02:42:07;;;;;;;;;;;20.50;99.90;;;;;;5050753;28;19925;-79
2022/08/16 02:44:32;;;;;;;;;;;20.50;99.90;;;;;;5047887;28;19925;-79
2022/08/16 02:46:58;;;;;;;;;;;20.40;99.90;;;;;;5051113;28;19950;-79
2022/08/16 02:49:23;;;;;;;;;;;20.40;99.90;;;;;;5049574;28;19967;-79
2022/08/16 02:51:49;;;;;;;;;;;20.30;99.90;;;;;;5050304;28;19925;-78
2022/08/16 02:54:14;;;;;;;;;;;20.30;99.90;;;;;;5049372;28;19924;-78
2022/08/16 02:56:40;;;;;;;;;;;20.30;99.90;;;;;;5032169;28;19995;-78
2022/08/16 02:59:06;;;;;;;;;;;20.20;99.90;;;;;;5049557;28;20378;-78
2022/08/16 03:01:32;;;;;;;;;;;20.20;99.90;;;;;;5048789;28;19921;-78
2022/08/16 03:03:58;;;;;;;;;;;20.20;99.90;;;;;;5050274;28;19924;-79
2022/08/16 03:06:24;;;;;;;;;;;20.10;99.90;;;;;;5049699;28;19931;-78
2022/08/16 03:08:50;;;;;;;;;;;20.10;99.90;;;;;;5048380;28;19996;-79
2022/08/16 03:11:17;;;;;;;;;;;20.10;99.90;;;;;;5049104;28;19943;-79
2022/08/16 03:13:43;;;;;;;;;;;20.00;99.90;;;;;;5048891;28;20031;-79
2022/08/16 03:16:09;;;;;;;;;;;20.00;99.90;;;;;;5049942;28;19931;-78
2022/08/16 03:18:34;;;;;;;;;;;20.00;99.90;;;;;;5050156;28;20378;-79
2022/08/16 03:21:00;;;;;;;;;;;20.00;99.90;;;;;;5050300;28;20349;-78
2022/08/16 03:23:25;;;;;;;;;;;20.00;99.90;;;;;;5049044;28;19960;-79
2022/08/16 03:25:51;;;;;;;;;;;19.90;99.90;;;;;;5048234;28;19933;-79
2022/08/16 03:28:17;;;;;;;;;;;19.90;99.90;;;;;;5048965;28;19994;-79
2022/08/16 03:30:42;;;;;;;;;;;19.90;99.90;;;;;;5048222;28;19932;-78
2022/08/16 03:33:08;;;;;;;;;;;19.90;99.90;;;;;;5049963;28;19994;-78
2022/08/16 03:35:34;;;;;;;;;;;19.90;99.90;;;;;;5031280;28;19925;-78
2022/08/16 03:38:01;;;;;;;;;;;19.80;99.90;;;;;;5036102;28;19931;-78
2022/08/16 03:40:26;;;;;;;;;;;19.80;99.90;;;;;;5050072;28;19955;-79
2022/08/16 03:42:52;;;;;;;;;;;19.80;99.90;;;;;;5046993;28;19996;-78
2022/08/16 03:45:18;;;;;;;;;;;19.70;99.90;;;;;;5047356;28;20358;-78
2022/08/16 03:47:44;;;;;;;;;;;19.70;99.90;;;;;;5049300;28;19932;-79
2022/08/16 03:50:10;;;;;;;;;;;19.70;99.90;;;;;;5048223;28;20367;-78
2022/08/16 03:52:35;;;;;;;;;;;19.70;99.90;;;;;;5031164;28;19925;-78
2022/08/16 03:55:01;;;;;;;;;;;19.70;99.90;;;;;;5047954;28;20379;-78
2022/08/16 03:57:28;;;;;;;;;;;19.70;99.90;;;;;;5049143;28;19925;-79
2022/08/16 03:59:54;;;;;;;;;;;19.70;99.90;;;;;;5031960;28;19947;-78
2022/08/16 04:02:20;;;;;;;;;;;19.70;99.90;;;;;;5047972;28;19925;-78
2022/08/16 04:04:45;;;;;;;;;;;19.50;99.90;;;;;;5049032;28;20371;-78
2022/08/16 04:07:11;;;;;;;;;;;19.60;99.90;;;;;;5049207;28;19925;-79
2022/08/16 04:09:36;;;;;;;;;;;19.50;99.90;;;;;;5048702;28;20038;-78
2022/08/16 04:12:03;;;;;;;;;;;19.60;99.90;;;;;;5047577;28;19921;-79
2022/08/16 04:14:29;;;;;;;;;;;19.50;99.90;;;;;;5047634;28;19925;-78
2022/08/16 04:16:55;;;;;;;;;;;19.50;99.90;;;;;;5049518;28;19925;-79
2022/08/16 04:19:21;;;;;;;;;;;19.50;99.90;;;;;;5048924;28;19961;-78
2022/08/16 04:21:47;;;;;;;;;;;19.40;99.90;;;;;;5048718;28;19928;-78
2022/08/16 04:24:12;;;;;;;;;;;19.40;99.90;;;;;;5047512;28;20280;-78
2022/08/16 04:26:38;;;;;;;;;;;19.40;99.90;;;;;;5048431;28;19933;-78
2022/08/16 04:29:03;;;;;;;;;;;19.30;99.90;;;;;;5047572;28;19973;-78
2022/08/16 04:31:29;;;;;;;;;;;19.30;99.90;;;;;;5047025;28;19925;-78
2022/08/16 04:33:58;;;;;;;;;;;19.30;99.90;;;;;;5048920;28;19982;-79
2022/08/16 04:36:24;;;;;;;;;;;19.30;99.90;;;;;;5047165;28;19971;-79
2022/08/16 04:38:49;;;;;;;;;;;19.20;99.90;;;;;;5048313;28;19931;-78
2022/08/16 04:41:16;;;;;;;;;;;19.20;99.90;;;;;;5047401;28;19921;-78
2022/08/16 04:43:41;;;;;;;;;;;19.20;99.90;;;;;;5045516;28;20027;-78
2022/08/16 04:46:07;;;;;;;;;;;19.20;99.90;;;;;;5048172;28;19968;-78
2022/08/16 04:48:32;;;;;;;;;;;19.20;99.90;;;;;;5046979;28;19978;-78
2022/08/16 04:50:58;;;;;;;;;;;19.20;99.90;;;;;;5047427;28;19983;-78
2022/08/16 04:53:23;;;;;;;;;;;19.20;99.90;;;;;;5048203;28;19925;-79
2022/08/16 04:55:49;;;;;;;;;;;19.30;99.90;;;;;;5047567;28;19936;-78
2022/08/16 04:58:14;;;;;;;;;;;19.30;99.90;;;;;;5045895;28;19925;-78
2022/08/16 05:00:40;;;;;;;;;;;19.30;99.90;;;;;;5046721;28;19966;-78
2022/08/16 05:03:07;;;;;;;;;;;19.40;99.90;;;;;;5047830;28;20009;-78
2022/08/16 05:05:33;;;;;;;;;;;19.40;99.90;;;;;;5046104;28;19932;-78
2022/08/16 05:07:59;;;;;;;;;;;19.40;99.90;;;;;;5046217;28;19925;-78
2022/08/16 05:10:25;;;;;;;;;;;19.40;99.90;;;;;;5048199;28;19925;-78
2022/08/16 05:12:51;;;;;;;;;;;19.30;99.90;;;;;;5046397;28;20030;-78
2022/08/16 05:15:16;;;;;;;;;;;19.40;99.90;;;;;;5047634;28;19980;-78
2022/08/16 05:17:42;;;;;;;;;;;19.40;99.90;;;;;;5045948;28;19936;-78
2022/08/16 05:20:08;;;;;;;;;;;19.40;99.90;;;;;;5047752;28;19980;-78
2022/08/16 05:22:35;;;;;;;;;;;19.40;99.90;;;;;;5045835;28;20015;-78
2022/08/16 05:25:05;;;;;;;;;;;19.40;99.90;;;;;;5047263;28;19937;-78
2022/08/16 05:27:30;;;;;;;;;;;19.40;99.90;;;;;;5046280;28;20027;-78
2022/08/16 05:29:56;;;;;;;;;;;19.50;99.90;;;;;;5047648;28;20003;-78
2022/08/16 05:32:21;;;;;;;;;;;19.50;99.90;;;;;;5045958;28;19924;-78
2022/08/16 05:34:47;;;;;;;;;;;19.50;99.90;;;;;;5045244;28;20389;-79
2022/08/16 05:37:12;;;;;;;;;;;19.50;99.90;;;;;;5045936;28;19921;-80
2022/08/16 05:39:37;;;;;;;;;;;19.60;99.90;;;;;;5029455;28;20353;-79
2022/08/16 05:42:03;;;;;;;;;;;19.60;99.90;;;;;;5028359;28;19967;-79
2022/08/16 05:44:28;;;;;;;;;;;19.60;99.90;;;;;;5045175;28;20365;-79
2022/08/16 05:46:56;;;;;;;;;;;19.70;99.90;;;;;;5046418;28;19925;-79
2022/08/16 05:49:21;;;;;;;;;;;19.70;99.90;;;;;;5046986;28;19970;-80
2022/08/16 05:51:47;;;;;;;;;;;19.80;99.90;;;;;;5046957;28;20345;-79
2022/08/16 05:54:16;;;;;;;;;;;19.80;99.90;;;;;;5046966;28;20386;-79
2022/08/16 05:56:42;;;;;;;;;;;19.90;99.90;;;;;;5045089;28;19925;-79
2022/08/16 05:59:07;;;;;;;;;;;19.90;99.90;;;;;;5044837;28;19924;-79
2022/08/16 06:01:34;;;;;;;;;;;20.00;99.90;;;;;;5046048;28;19933;-79
2022/08/16 06:03:59;;;;;;;;;;;20.00;99.90;;;;;;5047012;28;19924;-82
2022/08/16 06:06:25;;;;;;;;;;;20.10;99.90;;;;;;5028963;28;19932;-78
2022/08/16 06:08:50;;;;;;;;;;;20.10;99.90;;;;;;5045458;28;19925;-79
2022/08/16 06:11:16;;;;;;;;;;;20.20;99.90;;;;;;5047039;28;19931;-79
2022/08/16 06:13:42;;;;;;;;;;;20.30;99.90;;;;;;5044022;28;19936;-79
2022/08/16 06:16:08;;;;;;;;;;;20.30;99.90;;;;;;5045466;28;19932;-78
2022/08/16 06:18:33;;;;;;;;;;;20.40;99.90;;;;;;5045575;28;19924;-78
2022/08/16 06:20:59;;;;;;;;;;;20.40;99.90;;;;;;5046884;28;19917;-78
2022/08/16 06:23:25;;;;;;;;;;;20.50;99.90;;;;;;5046545;28;19972;-77
2022/08/16 06:25:51;;;;;;;;;;;20.50;99.90;;;;;;5046465;28;20339;-78
2022/08/16 06:28:17;;;;;;;;;;;20.60;99.90;;;;;;5045840;28;20314;-79
2022/08/16 06:30:42;;;;;;;;;;;20.60;99.90;;;;;;5044951;28;19986;-79
2022/08/16 06:33:09;;;;;;;;;;;20.70;99.90;;;;;;5046496;28;19924;-79
2022/08/16 06:35:35;;;;;;;;;;;20.80;99.90;;;;;;5046166;28;19964;-79
2022/08/16 06:38:01;;;;;;;;;;;20.80;99.90;;;;;;5046338;28;19924;-78
2022/08/16 06:40:28;;;;;;;;;;;20.90;99.90;;;;;;5046788;28;19925;-79
2022/08/16 06:42:55;;;;;;;;;;;20.90;99.90;;;;;;5044002;28;20020;-79
2022/08/16 06:45:20;;;;;;;;;;;20.90;99.90;;;;;;5044456;28;19928;-78
2022/08/16 06:47:46;;;;;;;;;;;21.00;99.90;;;;;;5046343;28;19987;-79
2022/08/16 06:50:11;;;;;;;;;;;21.00;99.90;;;;;;5046781;28;19932;-78
2022/08/16 06:52:37;;;;;;;;;;;21.00;99.90;;;;;;5046080;28;20059;-78
2022/08/16 06:55:04;;;;;;;;;;;21.10;99.90;;;;;;5046500;28;20011;-78
2022/08/16 06:57:30;;;;;;;;;;;21.20;99.90;;;;;;5045364;28;19982;-79
2022/08/16 06:59:55;;;;;;;;;;;21.20;99.90;;;;;;5046758;28;19971;-78
2022/08/16 07:02:21;;;;;;;;;;;21.30;99.90;;;;;;5046112;28;19925;-78
2022/08/16 07:04:46;;;;;;;;;;;21.30;99.90;;;;;;5045906;28;19994;-78
2022/08/16 07:07:12;;;;;;;;;;;21.30;99.90;;;;;;5045209;28;19931;-78
2022/08/16 07:09:37;;;;;;;;;;;21.40;99.90;;;;;;5044225;28;19927;-78
2022/08/16 07:12:03;;;;;;;;;;;21.40;99.90;;;;;;5044808;28;20031;-78
2022/08/16 07:14:28;;;;;;;;;;;21.40;99.90;;;;;;5045626;28;19925;-78
2022/08/16 07:16:56;;;;;;;;;;;21.50;99.90;;;;;;5045162;28;20282;-78
2022/08/16 07:19:21;;;;;;;;;;;21.50;99.90;;;;;;5047318;28;19972;-78
2022/08/16 07:21:47;;;;;;;;;;;21.60;99.90;;;;;;5049552;28;19967;-77
2022/08/16 07:24:12;;;;;;;;;;;21.60;99.90;;;;;;5031999;28;19924;-76
2022/08/16 07:26:38;;;;;;;;;;;21.60;99.90;;;;;;5049277;28;19924;-77
2022/08/16 07:29:03;;;;;;;;;;;21.60;99.90;;;;;;5048355;28;19976;-80
2022/08/16 07:31:29;;;;;;;;;;;21.70;99.90;;;;;;5048592;28;19925;-82
2022/08/16 07:33:54;;;;;;;;;;;21.70;99.90;;;;;;5049695;28;19960;-78
2022/08/16 07:36:21;;;;;;;;;;;21.80;99.90;;;;;;5049551;28;20011;-79
2022/08/16 07:38:46;;;;;;;;;;;21.80;99.90;;;;;;5049356;28;19928;-81
2022/08/16 07:41:12;;;;;;;;;;;21.80;99.90;;;;;;5047737;28;20012;-83
2022/08/16 07:43:38;;;;;;;;;;;21.80;99.90;;;;;;5046439;28;19968;-83
2022/08/16 07:46:03;;;;;;;;;;;21.80;99.90;;;;;;5062000;28;20406;-78
2022/08/16 07:48:29;;;;;;;;;;;21.80;99.90;;;;;;5057105;28;20011;-77
2022/08/16 07:50:55;;;;;;;;;;;21.80;99.90;;;;;;5049720;28;20013;-79
2022/08/16 07:53:20;;;;;;;;;;;21.80;99.90;;;;;;5048926;28;19991;-79
2022/08/16 07:55:46;;;;;;;;;;;21.80;99.90;;;;;;5048775;28;19941;-79
2022/08/16 07:58:12;;;;;;;;;;;21.90;99.90;;;;;;5048396;28;19951;-79
2022/08/16 08:00:38;;;;;;;;;;;22.00;99.90;;;;;;5048854;28;19970;-79
2022/08/16 08:03:03;;;;;;;;;;;22.00;99.90;;;;;;5048955;28;19978;-79
2022/08/16 08:05:29;;;;;;;;;;;22.10;99.90;;;;;;5048503;28;19925;-80
2022/08/16 08:07:54;;;;;;;;;;;22.10;99.90;;;;;;5047877;28;19925;-79
2022/08/16 08:10:21;;;;;;;;;;;22.10;99.90;;;;;;5047879;28;19979;-79
2022/08/16 08:12:51;;;;;;;;;;;22.10;99.90;;;;;;5052593;28;20019;-79
2022/08/16 08:15:17;;;;;;;;;;;22.10;99.90;;;;;;5068588;28;20294;-79
2022/08/16 08:17:43;;;;;;;;;;;22.10;99.90;;;;;;5042038;28;19991;-80
2022/08/16 08:20:11;;;;;;;;;;;22.00;99.90;;;;;;5033930;28;20386;-81
2022/08/16 08:22:37;;;;;;;;;;;22.00;99.90;;;;;;5032271;28;19931;-78
2022/08/16 08:25:02;;;;;;;;;;;22.00;99.90;;;;;;5046381;28;19925;-80
2022/08/16 08:27:28;;;;;;;;;;;22.10;99.90;;;;;;5037289;28;19925;-78
2022/08/16 08:29:53;;;;;;;;;;;22.10;99.90;;;;;;5052061;28;19925;-78
2022/08/16 08:32:20;;;;;;;;;;;22.20;99.90;;;;;;5039711;28;19924;-80
2022/08/16 08:34:46;;;;;;;;;;;22.30;99.90;;;;;;5039291;28;19948;-80
2022/08/16 08:37:11;;;;;;;;;;;22.30;99.90;;;;;;5043786;28;19968;-80
2022/08/16 08:39:37;;;;;;;;;;;22.40;99.90;;;;;;5037320;28;20328;-81
2022/08/16 08:42:04;;;;;;;;;;;22.40;99.90;;;;;;5043049;28;19935;-80
2022/08/16 08:44:30;;;;;;;;;;;22.50;99.90;;;;;;5044691;28;20374;-80
2022/08/16 08:47:05;;;;;;;;;;;22.50;99.90;;;;;;5045133;28;19928;-84
2022/08/16 08:49:31;;;;;;;;;;;22.60;99.90;;;;;;5047321;28;19929;-82
2022/08/16 08:51:57;;;;;;;;;;;22.60;99.90;;;;;;5046926;28;20371;-88
2022/08/16 08:54:24;;;;;;;;;;;22.60;99.90;;;;;;5046988;28;19943;-85
2022/08/16 08:56:51;;;;;;;;;;;22.60;99.90;;;;;;5046244;28;19925;-85
2022/08/16 08:59:16;;;;;;;;;;;22.60;99.90;;;;;;5043029;28;19982;-86
2022/08/16 09:01:42;;;;;;;;;;;22.70;99.90;;;;;;5046731;28;19933;-83
2022/08/16 09:04:07;;;;;;;;;;;22.70;99.90;;;;;;5050145;28;19925;-85
2022/08/16 09:06:33;;;;;;;;;;;22.70;99.90;;;;;;5042685;28;20336;-85
2022/08/16 09:08:59;;;;;;;;;;;22.80;99.90;;;;;;5027609;28;19932;-80
2022/08/16 09:11:25;;;;;;;;;;;22.80;99.90;;;;;;5027142;28;20405;-78
2022/08/16 09:13:50;;;;;;;;;;;22.90;99.90;;;;;;5036926;28;19929;-79
2022/08/16 09:16:16;;;;;;;;;;;23.00;99.90;;;;;;5046522;28;19972;-78
2022/08/16 09:18:42;;;;;;;;;;;23.00;99.90;;;;;;5059656;28;19928;-79
2022/08/16 09:21:08;;;;;;;;;;;23.10;99.90;;;;;;5066637;28;19924;-77
2022/08/16 09:23:34;;;;;;;;;;;23.10;99.90;;;;;;5045613;28;20378;-78
2022/08/16 09:26:00;;;;;;;;;;;23.10;99.90;;;;;;5047343;28;19994;-78
2022/08/16 09:28:27;;;;;;;;;;;23.10;99.90;;;;;;5035037;28;19939;-79
2022/08/16 09:30:53;;;;;;;;;;;23.20;99.90;;;;;;5040844;28;19971;-79
2022/08/16 09:33:19;;;;;;;;;;;23.20;99.90;;;;;;5046515;28;19974;-78
2022/08/16 09:35:45;;;;;;;;;;;23.20;99.90;;;;;;5048352;28;20374;-79
2022/08/16 09:38:12;;;;;;;;;;;23.20;99.90;;;;;;5038654;28;19925;-80
2022/08/16 09:40:39;;;;;;;;;;;23.30;99.90;;;;;;5039021;28;19936;-78
2022/08/16 09:43:05;;;;;;;;;;;23.30;99.90;;;;;;5045237;28;19925;-80
2022/08/16 09:45:37;;;;;;;;;;;23.30;99.90;;;;;;5045771;28;19925;-81
2022/08/16 09:48:06;;;;;;;;;;;23.40;99.90;;;;;;5046560;28;19925;-80
2022/08/16 09:50:33;;;;;;;;;;;23.40;99.90;;;;;;5045171;28;19928;-80
2022/08/16 09:52:59;;;;;;;;;;;23.50;99.90;;;;;;5045051;28;20615;-79
2022/08/16 09:55:24;;;;;;;;;;;23.50;99.90;;;;;;5045961;28;19924;-80
2022/08/16 09:57:50;;;;;;;;;;;23.50;99.90;;;;;;5051002;28;19936;-79
2022/08/16 10:00:16;;;;;;;;;;;23.50;99.90;;;;;;5045859;28;19935;-79
2022/08/16 10:02:42;;;;;;;;;;;23.50;99.90;;;;;;5046577;28;20302;-80
2022/08/16 10:05:08;;;;;;;;;;;23.60;99.90;;;;;;5046672;28;20011;-80
2022/08/16 10:07:33;;;;;;;;;;;23.60;99.90;;;;;;5046347;28;20441;-80
2022/08/16 10:09:59;;;;;;;;;;;23.60;99.90;;;;;;5046825;28;19929;-80
2022/08/16 10:15:14;;;;;;;;;;;23.70;99.90;;;;;;5045948;28;19925;-80
2022/08/16 10:17:41;;;;;;;;;;;23.80;99.90;;;;;;5048172;28;19932;-79
2022/08/16 10:20:10;;;;;;;;;;;23.80;99.90;;;;;;5041331;28;19977;-78
2022/08/16 10:22:36;;;;;;;;;;;23.90;99.90;;;;;;5037775;28;19925;-80
2022/08/16 10:25:02;;;;;;;;;;;23.90;99.90;;;;;;5026485;28;19925;-84
2022/08/16 10:27:27;;;;;;;;;;;23.90;99.90;;;;;;5031387;28;19970;-83
2022/08/16 10:29:53;;;;;;;;;;;24.00;99.90;;;;;;5040272;28;19941;-87
2022/08/16 10:32:19;;;;;;;;;;;24.00;99.90;;;;;;5041973;28;19929;-83
2022/08/16 10:34:45;;;;;;;;;;;24.00;99.90;;;;;;5044687;28;19972;-83
2022/08/16 10:37:11;;;;;;;;;;;24.00;99.90;;;;;;5041616;28;20398;-82
2022/08/16 10:39:38;;;;;;;;;;;24.00;99.90;;;;;;5043642;28;20023;-85
2022/08/16 10:42:04;;;;;;;;;;;24.00;99.90;;;;;;5035943;28;19991;-77
2022/08/16 10:44:30;;;;;;;;;;;24.10;99.90;;;;;;5041304;28;19970;-78
2022/08/16 10:46:55;;;;;;;;;;;24.10;99.90;;;;;;5036274;28;19928;-79
2022/08/16 10:49:21;;;;;;;;;;;24.20;99.90;;;;;;5039336;28;20375;-77
2022/08/16 10:51:46;;;;;;;;;;;24.20;99.90;;;;;;5036953;28;19931;-78
2022/08/16 10:54:12;;;;;;;;;;;24.20;99.90;;;;;;5041988;28;19925;-75
2022/08/16 10:56:38;;;;;;;;;;;24.20;99.90;;;;;;5046416;28;19978;-76
2022/08/16 10:59:04;;;;;;;;;;;24.20;99.90;;;;;;5048019;28;19975;-77
2022/08/16 11:01:30;;;;;;;;;;;24.30;99.90;;;;;;5048337;28;19971;-77
2022/08/16 11:03:56;;;;;;;;;;;24.30;99.90;;;;;;5048076;28;20413;-77
2022/08/16 11:06:22;;;;;;;;;;;24.30;99.90;;;;;;5042833;28;20329;-77
2022/08/16 11:08:47;;;;;;;;;;;24.30;99.90;;;;;;5044062;28;19928;-77
2022/08/16 11:11:14;;;;;;;;;;;24.30;99.90;;;;;;5047586;28;20058;-77
2022/08/16 11:13:40;;;;;;;;;;;24.30;99.90;;;;;;5045368;28;19925;-76
2022/08/16 11:16:06;;;;;;;;;;;24.30;99.90;;;;;;5048529;28;20298;-77
2022/08/16 11:18:32;;;;;;;;;;;24.30;99.90;;;;;;5046502;28;19925;-77
2022/08/16 11:20:57;;;;;;;;;;;24.30;99.90;;;;;;5049997;28;19970;-79
2022/08/16 11:23:24;;;;;;;;;;;24.30;99.90;;;;;;5035316;28;20445;-80
2022/08/16 11:25:50;;;;;;;;;;;24.30;99.90;;;;;;5045495;28;19925;-80
2022/08/16 11:28:16;;;;;;;;;;;24.30;99.90;;;;;;5027776;28;19979;-81
2022/08/16 11:30:42;;;;;;;;;;;24.40;99.90;;;;;;5038496;28;20015;-80
2022/08/16 11:33:08;;;;;;;;;;;24.30;99.90;;;;;;5049170;28;20404;-82
2022/08/16 11:35:34;;;;;;;;;;;24.30;99.90;;;;;;5047897;28;19917;-81
2022/08/16 11:38:02;;;;;;;;;;;24.40;99.90;;;;;;5039475;28;19925;-81
2022/08/16 11:40:30;;;;;;;;;;;24.40;99.90;;;;;;5047778;28;19971;-80
2022/08/16 11:42:56;;;;;;;;;;;24.40;99.90;;;;;;5046566;28;19933;-81
2022/08/16 11:45:22;;;;;;;;;;;24.50;99.90;;;;;;5042851;28;20439;-81
2022/08/16 11:47:47;;;;;;;;;;;24.50;99.90;;;;;;5046340;28;20118;-80
2022/08/16 11:50:13;;;;;;;;;;;24.60;99.90;;;;;;5044661;28;20366;-78
2022/08/16 11:52:39;;;;;;;;;;;24.60;99.90;;;;;;5045983;28;19924;-79
2022/08/16 11:55:06;;;;;;;;;;;24.60;99.90;;;;;;5045634;28;19925;-77
2022/08/16 11:57:32;;;;;;;;;;;24.60;99.90;;;;;;5042658;28;20298;-78
2022/08/16 11:59:57;;;;;;;;;;;24.70;99.90;;;;;;5048032;28;19986;-78
2022/08/16 12:02:24;;;;;;;;;;;24.70;99.90;;;;;;5047187;28;19925;-79
2022/08/16 12:04:49;;;;;;;;;;;24.70;99.90;;;;;;5047619;28;19983;-80
2022/08/16 12:07:14;;;;;;;;;;;24.70;99.90;;;;;;5042503;28;19925;-79
2022/08/16 12:09:40;;;;;;;;;;;24.80;99.90;;;;;;5050843;28;19936;-79
2022/08/16 12:12:06;;;;;;;;;;;24.80;99.90;;;;;;5043431;28;19920;-79
2022/08/16 12:14:33;;;;;;;;;;;24.80;99.90;;;;;;5047789;28;19925;-79
2022/08/16 12:17:00;;;;;;;;;;;24.90;99.90;;;;;;5047190;28;20121;-78
2022/08/16 12:19:26;;;;;;;;;;;24.90;99.90;;;;;;5046680;28;19979;-79
2022/08/16 12:21:52;;;;;;;;;;;24.90;99.90;;;;;;5036382;28;19964;-79
2022/08/16 12:24:17;;;;;;;;;;;24.90;99.90;;;;;;5046653;28;20353;-80
2022/08/16 12:26:43;;;;;;;;;;;24.90;99.90;;;;;;5021488;28;20412;-78
2022/08/16 12:29:09;;;;;;;;;;;24.80;99.90;;;;;;5040880;28;19925;-78
2022/08/16 12:31:35;;;;;;;;;;;24.80;99.90;;;;;;5037147;28;19960;-79
2022/08/16 12:34:01;;;;;;;;;;;24.80;99.90;;;;;;5046754;28;19928;-79
2022/08/16 12:36:26;;;;;;;;;;;24.80;99.90;;;;;;5034684;28;20420;-78
2022/08/16 12:38:53;;;;;;;;;;;24.80;99.90;;;;;;5036634;28;19933;-80
2022/08/16 12:41:19;;;;;;;;;;;24.80;99.90;;;;;;5032474;28;19935;-78
2022/08/16 12:43:45;;;;;;;;;;;24.80;99.90;;;;;;5044815;28;20385;-78
2022/08/16 12:46:11;;;;;;;;;;;24.80;99.90;;;;;;5042561;28;20564;-79
2022/08/16 12:51:22;;;;;;;;;;;24.90;99.90;;;;;;5044570;28;19932;-78
2022/08/16 12:53:50;;;;;;;;;;;24.90;99.90;;;;;;5044949;28;19924;-78
2022/08/16 12:56:17;;;;;;;;;;;24.90;99.90;;;;;;5045954;28;19931;-78
2022/08/16 12:58:42;;;;;;;;;;;24.90;99.90;;;;;;5044809;28;20307;-78
2022/08/16 13:01:08;;;;;;;;;;;24.90;99.90;;;;;;5045359;28;19925;-78
2022/08/16 13:03:33;;;;;;;;;;;24.90;99.90;;;;;;5045897;28;19931;-78
2022/08/16 13:05:59;;;;;;;;;;;24.90;99.90;;;;;;5046305;28;19929;-78
2022/08/16 13:08:25;;;;;;;;;;;24.90;99.90;;;;;;5045402;28;19979;-78
2022/08/16 13:10:52;;;;;;;;;;;24.90;99.90;;;;;;5043198;28;19951;-78
2022/08/16 13:13:23;;;;;;;;;;;24.90;99.90;;;;;;5045275;28;19925;-78
2022/08/16 13:15:49;;;;;;;;;;;24.90;99.90;;;;;;5046130;28;19943;-78
2022/08/16 13:18:15;;;;;;;;;;;25.00;99.90;;;;;;5044473;28;19933;-78
2022/08/16 13:20:40;;;;;;;;;;;25.00;99.90;;;;;;5042244;28;19925;-78
2022/08/16 13:23:07;;;;;;;;;;;25.00;99.90;;;;;;5044162;28;19932;-78
2022/08/16 13:25:34;;;;;;;;;;;25.00;99.90;;;;;;5046986;28;19925;-78
2022/08/16 13:28:00;;;;;;;;;;;25.00;99.90;;;;;;5044180;28;19931;-79
2022/08/16 13:30:26;;;;;;;;;;;25.00;99.90;;;;;;5047339;28;20015;-79
2022/08/16 13:32:52;;;;;;;;;;;25.00;99.90;;;;;;5046668;28;19960;-80
2022/08/16 13:35:18;;;;;;;;;;;25.00;99.90;;;;;;5041815;28;20379;-80
2022/08/16 13:37:43;;;;;;;;;;;25.00;99.90;;;;;;5037583;28;19979;-79
2022/08/16 13:40:09;;;;;;;;;;;25.10;99.90;;;;;;5040507;28;19936;-80
2022/08/16 13:42:37;;;;;;;;;;;25.10;99.90;;;;;;5045617;28;20436;-78
2022/08/16 13:45:05;;;;;;;;;;;25.10;99.90;;;;;;5045070;28;20126;-79
2022/08/16 13:47:31;;;;;;;;;;;25.10;99.90;;;;;;5031699;28;19952;-79
2022/08/16 13:49:56;;;;;;;;;;;25.10;99.90;;;;;;5039541;28;20311;-80
2022/08/16 13:52:23;;;;;;;;;;;25.20;99.90;;;;;;5039567;28;20007;-79
2022/08/16 13:54:48;;;;;;;;;;;25.20;99.90;;;;;;5042396;28;19974;-78
2022/08/16 13:57:14;;;;;;;;;;;25.10;99.90;;;;;;5045776;28;20367;-78
2022/08/16 13:59:41;;;;;;;;;;;25.20;99.90;;;;;;5049161;28;20232;-78
2022/08/16 14:02:07;;;;;;;;;;;25.20;99.90;;;;;;5040153;28;19942;-78
2022/08/16 14:04:34;;;;;;;;;;;25.20;99.90;;;;;;5037455;28;20020;-78
2022/08/16 14:07:02;;;;;;;;;;;25.20;99.90;;;;;;5039988;28;19925;-78
2022/08/16 14:09:28;;;;;;;;;;;25.20;99.90;;;;;;5031899;28;20437;-77
2022/08/16 14:11:57;;;;;;;;;;;25.30;99.90;;;;;;5016156;28;19955;-78
2022/08/16 14:14:24;;;;;;;;;;;25.30;99.90;;;;;;5044648;28;19925;-77